createdAt,value
2018-10-02T00:01:48.428Z,78.31
2018-10-02T00:04:16.232Z,77.74
2018-10-02T00:06:44.014Z,77.39
2018-10-02T00:09:12.684Z,77.83
2018-10-02T00:11:45.999Z,77.55
2018-10-02T00:14:19.258Z,77.31
2018-10-02T00:16:47.186Z,78.28
2018-10-02T00:19:14.925Z,78.72
2018-10-02T00:21:42.809Z,80.40
2018-10-02T00:24:10.539Z,79.43
2018-10-02T00:26:38.290Z,79.87
2018-10-02T00:29:06.003Z,79.53
2018-10-02T00:31:34.022Z,79.59
2018-10-02T00:34:01.614Z,79.60
2018-10-02T00:36:29.355Z,79.08
2018-10-02T00:38:57.160Z,78.76
2018-10-02T00:41:24.899Z,79.15
2018-10-02T00:43:52.675Z,79.01
2018-10-02T00:46:20.435Z,78.77
2018-10-02T00:48:49.158Z,79.44
2018-10-02T00:51:16.963Z,78.91
2018-10-02T00:53:44.726Z,80.53
2018-10-02T00:56:12.519Z,80.00
2018-10-02T00:58:40.251Z,80.44
2018-10-02T01:01:08.053Z,79.66
2018-10-02T01:03:35.818Z,80.13
2018-10-02T01:06:03.560Z,80.69
2018-10-02T01:08:31.354Z,81.84
2018-10-02T01:10:59.066Z,80.65
2018-10-02T01:13:26.863Z,80.83
2018-10-02T01:15:54.598Z,80.66
2018-10-02T01:18:22.322Z,79.70
2018-10-02T01:20:50.058Z,80.51
2018-10-02T01:23:17.774Z,80.49
2018-10-02T01:25:45.504Z,80.16
2018-10-02T01:28:13.199Z,81.00
2018-10-02T01:30:40.952Z,80.52
2018-10-02T01:33:08.759Z,80.05
2018-10-02T01:35:36.491Z,80.20
2018-10-02T01:38:04.270Z,80.77
2018-10-02T01:40:32.039Z,81.38
2018-10-02T01:42:59.791Z,82.63
2018-10-02T01:45:27.499Z,81.72
2018-10-02T01:47:55.254Z,82.38
2018-10-02T01:50:23.021Z,82.68
2018-10-02T01:52:50.748Z,82.17
2018-10-02T01:55:18.534Z,81.88
2018-10-02T01:57:46.298Z,81.78
2018-10-02T02:00:14.099Z,81.67
2018-10-02T02:02:41.881Z,80.52
2018-10-02T02:05:09.647Z,80.93
2018-10-02T02:07:37.382Z,81.12
2018-10-02T02:10:05.509Z,81.12
2018-10-02T02:12:33.622Z,81.42
2018-10-02T02:15:01.652Z,80.76
2018-10-02T02:17:29.437Z,80.80
2018-10-02T02:19:57.258Z,80.21
2018-10-02T02:22:25.066Z,79.72
2018-10-02T02:24:52.851Z,80.05
2018-10-02T02:27:20.633Z,80.26
2018-10-02T02:29:48.847Z,79.72
2018-10-02T02:32:16.597Z,79.38
2018-10-02T02:34:44.378Z,79.66
2018-10-02T02:37:12.181Z,78.88
2018-10-02T02:39:39.895Z,78.14
2018-10-02T02:42:07.651Z,78.35
2018-10-02T02:44:35.451Z,79.03
2018-10-02T02:47:08.707Z,79.16
2018-10-02T02:49:41.860Z,79.09
2018-10-02T02:52:09.985Z,78.72
2018-10-02T02:54:37.789Z,78.52
2018-10-02T02:57:05.435Z,78.43
2018-10-02T02:59:33.254Z,78.58
2018-10-02T03:02:01.063Z,78.84
2018-10-02T03:04:28.821Z,79.06
2018-10-02T03:06:56.562Z,79.26
2018-10-02T03:09:24.274Z,79.48
2018-10-02T03:11:52.034Z,79.21
2018-10-02T03:14:21.905Z,79.12
2018-10-02T03:16:49.955Z,79.49
2018-10-02T03:19:17.775Z,79.06
2018-10-02T03:21:45.559Z,78.98
2018-10-02T03:24:13.288Z,78.90
2018-10-02T03:26:41.050Z,79.86
2018-10-02T03:29:08.907Z,79.88
2018-10-02T03:31:36.599Z,79.36
2018-10-02T03:34:04.404Z,78.99
2018-10-02T03:36:32.094Z,79.01
2018-10-02T03:38:59.870Z,79.61
2018-10-02T03:41:27.736Z,78.70
2018-10-02T03:43:55.495Z,79.05
2018-10-02T03:46:23.384Z,78.48
2018-10-02T03:48:51.187Z,78.10
2018-10-02T03:51:18.911Z,78.50
2018-10-02T03:53:46.711Z,77.54
2018-10-02T03:56:14.474Z,78.50
2018-10-02T03:58:42.244Z,78.47
2018-10-02T04:01:09.999Z,78.21
2018-10-02T04:03:37.891Z,78.17
2018-10-02T04:06:05.608Z,77.51
2018-10-02T04:08:33.375Z,77.52
2018-10-02T04:11:01.167Z,77.89
2018-10-02T04:13:28.947Z,77.84
2018-10-02T04:15:56.707Z,78.53
2018-10-02T04:18:24.558Z,77.98
2018-10-02T04:20:52.381Z,77.57
2018-10-02T04:23:20.112Z,78.22
2018-10-02T04:25:47.842Z,78.45
2018-10-02T04:28:15.545Z,78.08
2018-10-02T04:30:43.287Z,78.21
2018-10-02T04:33:11.088Z,78.63
2018-10-02T04:35:38.838Z,78.57
2018-10-02T04:38:06.668Z,78.77
2018-10-02T04:40:34.439Z,77.49
2018-10-02T04:43:02.183Z,77.64
2018-10-02T04:45:29.960Z,77.90
2018-10-02T04:47:57.767Z,77.55
2018-10-02T04:50:25.802Z,77.28
2018-10-02T04:52:54.076Z,77.98
2018-10-02T04:55:21.866Z,77.53
2018-10-02T04:57:49.675Z,78.52
2018-10-02T05:00:17.555Z,78.12
2018-10-02T05:02:45.302Z,78.53
2018-10-02T05:05:13.094Z,77.77
2018-10-02T05:07:40.848Z,77.57
2018-10-02T05:10:08.635Z,77.42
2018-10-02T05:12:36.469Z,77.83
2018-10-02T05:15:04.415Z,77.58
2018-10-02T05:17:32.215Z,77.26
2018-10-02T05:19:59.922Z,76.86
2018-10-02T05:22:27.703Z,76.79
2018-10-02T05:24:55.512Z,75.88
2018-10-02T05:27:23.458Z,76.69
2018-10-02T05:29:51.138Z,76.86
2018-10-02T05:32:18.975Z,76.18
2018-10-02T05:34:46.769Z,76.34
2018-10-02T05:37:14.570Z,75.80
2018-10-02T05:39:42.279Z,77.08
2018-10-02T05:42:10.157Z,76.95
2018-10-02T05:44:37.890Z,76.60
2018-10-02T05:47:05.707Z,75.89
2018-10-02T05:49:33.915Z,74.81
2018-10-02T05:52:01.728Z,73.89
2018-10-02T05:54:29.455Z,74.17
2018-10-02T05:56:57.172Z,72.79
2018-10-02T05:59:24.871Z,72.51
2018-10-02T06:01:53.184Z,72.11
2018-10-02T06:04:20.939Z,72.27
2018-10-02T06:06:48.651Z,72.64
2018-10-02T06:09:16.468Z,72.09
2018-10-02T06:11:44.219Z,71.65
2018-10-02T06:14:12.007Z,71.50
2018-10-02T06:16:40.243Z,71.83
2018-10-02T06:19:07.999Z,73.67
2018-10-02T06:21:35.808Z,73.46
2018-10-02T06:24:03.647Z,73.03
2018-10-02T06:26:31.457Z,72.57
2018-10-02T06:28:59.203Z,72.81
2018-10-02T06:31:26.894Z,73.14
2018-10-02T06:33:54.747Z,72.51
2018-10-02T06:36:22.532Z,72.48
2018-10-02T06:38:50.401Z,74.17
2018-10-02T06:41:18.086Z,73.25
2018-10-02T06:43:45.906Z,72.39
2018-10-02T06:46:13.680Z,71.05
2018-10-02T06:48:41.448Z,70.15
2018-10-02T06:51:09.438Z,69.27
2018-10-02T06:53:37.134Z,69.05
2018-10-02T06:56:04.923Z,69.21
2018-10-02T06:58:32.689Z,69.01
2018-10-02T07:01:00.407Z,68.30
2018-10-02T07:03:28.148Z,67.93
2018-10-02T07:05:55.928Z,66.74
2018-10-02T07:08:23.679Z,65.93
2018-10-02T07:10:51.457Z,65.08
2018-10-02T07:13:19.162Z,64.67
2018-10-02T07:15:46.907Z,63.43
2018-10-02T07:18:14.715Z,66.54
2018-10-02T07:20:42.494Z,64.58
2018-10-02T07:23:10.295Z,66.07
2018-10-02T07:25:38.054Z,66.51
2018-10-02T07:28:05.994Z,64.68
2018-10-02T07:30:33.739Z,66.20
2018-10-02T07:33:01.644Z,66.87
2018-10-02T07:35:29.340Z,65.83
2018-10-02T07:37:57.147Z,64.93
2018-10-02T07:40:24.975Z,63.26
2018-10-02T07:42:52.687Z,62.49
2018-10-02T07:45:20.480Z,61.12
2018-10-02T07:47:48.207Z,59.11
2018-10-02T07:50:16.002Z,58.70
2018-10-02T07:52:43.959Z,57.54
2018-10-02T07:55:11.736Z,57.80
2018-10-02T07:57:39.469Z,57.74
2018-10-02T08:00:07.516Z,58.05
2018-10-02T08:02:35.349Z,58.55
2018-10-02T08:05:03.277Z,58.58
2018-10-02T08:07:30.987Z,55.60
2018-10-02T08:09:58.775Z,56.05
2018-10-02T08:12:26.641Z,55.84
2018-10-02T08:14:54.521Z,56.76
2018-10-02T08:17:22.316Z,56.42
2018-10-02T08:19:50.023Z,56.85
2018-10-02T08:22:17.874Z,59.74
2018-10-02T08:24:45.566Z,57.41
2018-10-02T08:27:13.337Z,56.05
2018-10-02T08:29:41.161Z,56.65
2018-10-02T08:32:08.799Z,58.13
2018-10-02T08:34:36.483Z,58.47
2018-10-02T08:37:04.281Z,59.22
2018-10-02T08:39:32.007Z,56.73
2018-10-02T08:41:59.788Z,55.56
2018-10-02T08:44:27.595Z,53.99
2018-10-02T08:46:56.074Z,56.07
2018-10-02T08:49:23.839Z,56.77
2018-10-02T08:51:51.737Z,53.82
2018-10-02T08:54:19.540Z,55.90
2018-10-02T08:56:47.369Z,55.86
2018-10-02T08:59:15.180Z,56.04
2018-10-02T09:01:42.874Z,56.57
2018-10-02T09:04:10.611Z,56.08
2018-10-02T09:06:38.442Z,53.77
2018-10-02T09:09:09.275Z,55.86
2018-10-02T09:11:37.083Z,54.71
2018-10-02T09:14:04.923Z,53.68
2018-10-02T09:16:32.767Z,54.42
2018-10-02T09:19:00.634Z,56.06
2018-10-02T09:21:28.413Z,56.27
2018-10-02T09:23:56.244Z,55.89
2018-10-02T09:26:24.056Z,56.31
2018-10-02T09:28:51.822Z,54.87
2018-10-02T09:31:25.131Z,53.89
2018-10-02T09:33:58.631Z,51.10
2018-10-02T09:36:31.903Z,52.79
2018-10-02T09:39:05.111Z,51.79
2018-10-02T09:41:38.341Z,50.45
2018-10-02T09:44:06.577Z,50.67
2018-10-02T09:46:34.387Z,50.59
2018-10-02T09:49:02.306Z,52.19
2018-10-02T09:51:30.091Z,55.32
2018-10-02T09:53:57.838Z,54.83
2018-10-02T09:56:30.191Z,53.87
2018-10-02T09:58:58.067Z,52.26
2018-10-02T10:02:35.299Z,50.79
2018-10-02T10:05:03.036Z,51.78
2018-10-02T10:07:30.784Z,50.36
2018-10-02T10:09:58.544Z,49.49
2018-10-02T10:12:26.316Z,48.97
2018-10-02T10:14:54.089Z,48.62
2018-10-02T10:17:21.983Z,47.38
2018-10-02T10:19:49.754Z,45.04
2018-10-02T10:22:17.543Z,43.86
2018-10-02T10:24:45.359Z,41.98
2018-10-02T10:27:13.087Z,42.48
2018-10-02T10:29:40.862Z,44.11
2018-10-02T10:32:08.955Z,44.76
2018-10-02T10:34:36.828Z,43.24
2018-10-02T10:37:04.580Z,43.37
2018-10-02T10:39:32.451Z,43.53
2018-10-02T10:42:00.203Z,43.87
2018-10-02T10:44:27.962Z,44.55
2018-10-02T10:46:55.850Z,42.61
2018-10-02T10:49:23.661Z,44.53
2018-10-02T10:51:51.448Z,44.55
2018-10-02T10:54:19.200Z,46.29
2018-10-02T10:56:47.112Z,47.99
2018-10-02T10:59:14.907Z,48.66
2018-10-02T11:01:42.739Z,49.00
2018-10-02T11:04:10.474Z,46.54
2018-10-02T11:06:38.242Z,46.71
2018-10-02T11:09:08.027Z,48.52
2018-10-02T11:11:35.807Z,49.62
2018-10-02T11:14:03.663Z,48.70
2018-10-02T11:16:31.396Z,45.63
2018-10-02T11:18:59.196Z,46.90
2018-10-02T11:21:27.025Z,49.84
2018-10-02T11:23:54.811Z,49.31
2018-10-02T11:26:22.531Z,48.71
2018-10-02T11:28:50.299Z,48.63
2018-10-02T11:31:18.099Z,47.14
2018-10-02T11:33:45.806Z,46.40
2018-10-02T11:36:13.660Z,47.36
2018-10-02T11:38:41.423Z,44.02
2018-10-02T11:41:09.191Z,42.02
2018-10-02T11:43:37.007Z,41.32
2018-10-02T11:46:04.746Z,40.21
2018-10-02T11:48:32.523Z,39.07
2018-10-02T11:51:00.325Z,37.65
2018-10-02T11:53:28.091Z,39.09
2018-10-02T11:55:55.833Z,41.71
2018-10-02T11:58:23.653Z,44.56
2018-10-02T12:00:51.547Z,48.13
2018-10-02T12:03:19.254Z,48.58
2018-10-02T12:05:47.112Z,49.51
2018-10-02T12:08:14.912Z,47.98
2018-10-02T12:10:42.648Z,49.43
2018-10-02T12:13:10.434Z,51.41
2018-10-02T12:15:38.268Z,52.21
2018-10-02T12:18:06.073Z,50.82
2018-10-02T12:20:33.811Z,49.47
2018-10-02T12:23:01.641Z,49.40
2018-10-02T12:25:29.427Z,49.46
2018-10-02T12:27:57.223Z,50.49
2018-10-02T12:30:24.983Z,49.60
2018-10-02T12:32:52.799Z,47.21
2018-10-02T12:35:20.572Z,46.03
2018-10-02T12:37:49.450Z,45.66
2018-10-02T12:40:17.195Z,45.64
2018-10-02T12:42:44.899Z,44.30
2018-10-02T12:45:12.671Z,43.67
2018-10-02T12:47:40.426Z,44.39
2018-10-02T12:50:08.292Z,47.09
2018-10-02T12:52:36.206Z,47.38
2018-10-02T12:55:04.064Z,46.05
2018-10-02T12:57:31.826Z,44.12
2018-10-02T12:59:59.619Z,46.50
2018-10-02T13:02:27.340Z,47.04
2018-10-02T13:04:55.147Z,46.53
2018-10-02T13:07:22.883Z,45.80
2018-10-02T13:09:50.654Z,46.09
2018-10-02T13:12:18.407Z,45.90
2018-10-02T13:14:46.190Z,47.41
2018-10-02T13:17:13.964Z,47.44
2018-10-02T13:19:41.724Z,45.55
2018-10-02T13:22:09.511Z,47.60
2018-10-02T13:24:37.322Z,47.22
2018-10-02T13:27:05.119Z,46.27
2018-10-02T13:29:32.853Z,47.33
2018-10-02T13:32:00.572Z,47.21
2018-10-02T13:34:28.422Z,45.57
2018-10-02T13:36:56.319Z,46.53
2018-10-02T13:39:24.117Z,47.04
2018-10-02T13:41:51.878Z,47.94
2018-10-02T13:44:19.691Z,48.24
2018-10-02T13:46:47.471Z,48.41
2018-10-02T13:49:15.222Z,44.71
2018-10-02T13:51:43.015Z,47.08
2018-10-02T13:54:10.780Z,48.29
2018-10-02T13:56:38.754Z,48.02
2018-10-02T13:59:06.827Z,48.58
2018-10-02T14:01:34.588Z,48.88
2018-10-02T14:04:02.435Z,47.69
2018-10-02T14:06:30.178Z,45.79
2018-10-02T14:08:57.906Z,45.47
2018-10-02T14:11:25.711Z,45.80
2018-10-02T14:13:53.541Z,48.33
2018-10-02T14:16:21.582Z,48.68
2018-10-02T14:18:49.583Z,49.93
2018-10-02T14:21:17.470Z,50.07
2018-10-02T14:23:45.261Z,50.30
2018-10-02T14:26:13.053Z,52.47
2018-10-02T14:28:40.891Z,51.99
2018-10-02T14:31:08.685Z,51.20
2018-10-02T14:33:36.402Z,50.49
2018-10-02T14:36:05.468Z,50.19
2018-10-02T14:38:33.179Z,50.29
2018-10-02T14:41:00.907Z,50.19
2018-10-02T14:43:28.719Z,49.87
2018-10-02T14:45:56.564Z,51.64
2018-10-02T14:48:24.883Z,50.86
2018-10-02T14:50:52.678Z,51.19
2018-10-02T14:53:20.455Z,52.47
2018-10-02T14:55:48.227Z,52.71
2018-10-02T14:58:16.006Z,52.50
2018-10-02T15:00:43.803Z,53.69
2018-10-02T15:03:11.687Z,53.29
2018-10-02T15:05:39.536Z,53.95
2018-10-02T15:08:07.279Z,54.05
2018-10-02T15:10:35.033Z,54.52
2018-10-02T15:13:02.759Z,55.31
2018-10-02T15:15:30.543Z,54.62
2018-10-02T15:17:58.344Z,57.02
2018-10-02T15:20:26.157Z,56.97
2018-10-02T15:22:53.915Z,56.74
2018-10-02T15:25:21.653Z,57.17
2018-10-02T15:27:49.490Z,58.10
2018-10-02T15:30:17.281Z,58.33
2018-10-02T15:32:45.058Z,58.63
2018-10-02T15:35:12.915Z,59.56
2018-10-02T15:37:40.796Z,60.87
2018-10-02T15:40:08.691Z,61.29
2018-10-02T15:42:36.547Z,62.36
2018-10-02T15:45:04.588Z,62.76
2018-10-02T15:47:32.395Z,62.94
2018-10-02T15:50:00.225Z,63.18
2018-10-02T15:52:28.076Z,63.23
2018-10-02T15:54:55.890Z,64.47
2018-10-02T15:57:23.752Z,66.66
2018-10-02T15:59:51.534Z,68.02
2018-10-02T16:02:19.305Z,67.95
2018-10-02T16:04:47.113Z,67.92
2018-10-02T16:07:14.882Z,68.57
2018-10-02T16:09:42.816Z,69.42
2018-10-02T16:12:10.642Z,69.52
2018-10-02T16:14:38.427Z,70.47
2018-10-02T16:17:06.520Z,70.95
2018-10-02T16:19:34.308Z,70.11
2018-10-02T16:22:02.192Z,71.17
2018-10-02T16:24:29.848Z,71.09
2018-10-02T16:26:57.611Z,71.21
2018-10-02T16:29:25.424Z,71.13
2018-10-02T16:31:53.177Z,71.25
2018-10-02T16:34:21.029Z,71.84
2018-10-02T16:36:48.747Z,72.53
2018-10-02T16:39:16.542Z,72.33
2018-10-02T16:41:44.367Z,72.58
2018-10-02T16:44:12.166Z,72.50
2018-10-02T16:46:39.931Z,72.49
2018-10-02T16:49:07.871Z,73.10
2018-10-02T16:51:35.651Z,74.21
2018-10-02T16:54:03.371Z,73.33
2018-10-02T16:56:31.179Z,73.18
2018-10-02T16:58:58.968Z,74.05
2018-10-02T17:01:26.811Z,73.61
2018-10-02T17:03:54.620Z,73.87
2018-10-02T17:06:22.415Z,74.17
2018-10-02T17:08:50.190Z,73.87
2018-10-02T17:11:18.078Z,73.48
2018-10-02T17:13:45.820Z,73.00
2018-10-02T17:16:13.524Z,73.43
2018-10-02T17:18:41.559Z,73.84
2018-10-02T17:21:09.343Z,73.57
2018-10-02T17:23:37.011Z,73.64
2018-10-02T17:26:04.787Z,73.57
2018-10-02T17:28:32.531Z,73.90
2018-10-02T17:31:00.277Z,72.90
2018-10-02T17:33:28.077Z,72.96
2018-10-02T17:35:55.835Z,74.03
2018-10-02T17:38:23.510Z,74.96
2018-10-02T17:40:51.264Z,74.57
2018-10-02T17:43:19.067Z,74.37
2018-10-02T17:45:46.808Z,74.54
2018-10-02T17:48:14.636Z,75.27
2018-10-02T17:50:42.456Z,75.84
2018-10-02T17:53:10.203Z,75.51
2018-10-02T17:55:38.007Z,75.62
2018-10-02T17:58:06.393Z,75.10
2018-10-02T18:00:34.283Z,74.88
2018-10-02T18:03:02.056Z,75.20
2018-10-02T18:05:29.790Z,74.39
2018-10-02T18:07:57.522Z,74.58
2018-10-02T18:10:25.360Z,74.73
2018-10-02T18:12:53.288Z,75.49
2018-10-02T18:15:21.026Z,74.50
2018-10-02T18:17:48.788Z,74.32
2018-10-02T18:20:16.618Z,74.82
2018-10-02T18:22:44.378Z,75.58
2018-10-02T18:25:12.205Z,75.99
2018-10-02T18:27:40.116Z,77.06
2018-10-02T18:30:07.984Z,76.52
2018-10-02T18:32:35.815Z,75.76
2018-10-02T18:35:03.607Z,76.00
2018-10-02T18:37:31.546Z,75.66
2018-10-02T18:39:59.311Z,75.62
2018-10-02T18:42:27.151Z,75.34
2018-10-02T18:44:54.947Z,75.06
2018-10-02T18:47:22.727Z,75.25
2018-10-02T18:49:50.485Z,75.25
2018-10-02T18:52:18.316Z,75.04
2018-10-02T18:54:46.200Z,75.24
2018-10-02T18:57:13.963Z,75.37
2018-10-02T18:59:41.868Z,75.63
2018-10-02T19:02:09.948Z,75.66
2018-10-02T19:04:37.924Z,75.07
2018-10-02T19:07:05.757Z,75.36
2018-10-02T19:09:34.252Z,74.52
2018-10-02T19:12:07.551Z,74.88
2018-10-02T19:14:35.459Z,73.94
2018-10-02T19:17:03.621Z,74.38
2018-10-02T19:19:36.989Z,74.26
2018-10-02T19:22:04.779Z,74.23
2018-10-02T19:24:32.616Z,74.35
2018-10-02T19:27:00.435Z,74.81
2018-10-02T19:29:28.224Z,74.49
2018-10-02T19:32:01.696Z,74.42
2018-10-02T19:34:29.521Z,74.54
2018-10-02T19:36:58.848Z,74.86
2018-10-02T19:39:28.255Z,74.70
2018-10-02T19:41:56.352Z,76.17
2018-10-02T19:44:24.091Z,76.06
2018-10-02T19:46:55.356Z,76.71
2018-10-02T19:49:24.703Z,76.29
2018-10-02T19:52:11.515Z,76.97
2018-10-02T19:54:40.343Z,75.30
2018-10-02T19:57:09.440Z,75.12
2018-10-02T19:59:37.272Z,73.73
2018-10-02T20:02:05.020Z,72.21
2018-10-02T20:04:32.747Z,73.09
2018-10-02T20:07:00.558Z,73.36
2018-10-02T20:09:28.375Z,73.62
2018-10-02T20:11:56.199Z,73.25
2018-10-02T20:14:24.749Z,72.61
2018-10-02T20:16:52.482Z,72.07
2018-10-02T20:19:20.264Z,71.43
2018-10-02T20:21:48.019Z,70.31
2018-10-02T20:24:15.731Z,71.07
2018-10-02T20:26:43.456Z,70.58
2018-10-02T20:29:11.273Z,69.71
2018-10-02T20:31:41.867Z,68.94
2018-10-02T20:34:09.626Z,68.30
2018-10-02T20:36:37.473Z,68.97
2018-10-02T20:39:07.319Z,69.31
2018-10-02T20:41:35.138Z,69.07
2018-10-02T20:44:03.030Z,69.02
2018-10-02T20:46:30.829Z,68.33
2018-10-02T20:48:58.653Z,69.45
2018-10-02T20:51:26.528Z,69.92
2018-10-02T20:53:54.379Z,68.98
2018-10-02T20:56:22.195Z,69.73
2018-10-02T20:58:50.027Z,69.67
2018-10-02T21:01:17.732Z,69.54
2018-10-02T21:03:45.535Z,69.74
2018-10-02T21:06:13.338Z,70.15
2018-10-02T21:08:41.091Z,70.02
2018-10-02T21:11:08.835Z,70.02
2018-10-02T21:13:36.667Z,69.24
2018-10-02T21:16:04.639Z,69.30
2018-10-02T21:18:32.523Z,69.78
2018-10-02T21:21:00.346Z,69.69
2018-10-02T21:23:28.148Z,69.40
2018-10-02T21:25:56.201Z,68.98
2018-10-02T21:28:24.425Z,69.10
2018-10-02T21:30:52.218Z,69.34
2018-10-02T21:33:20.008Z,68.55
2018-10-02T21:35:47.940Z,68.54
2018-10-02T21:38:15.732Z,68.55
2018-10-02T21:40:43.567Z,68.98
2018-10-02T21:43:11.396Z,69.56
2018-10-02T21:45:39.131Z,69.60
2018-10-02T21:48:06.903Z,69.22
2018-10-02T21:50:34.683Z,70.17
2018-10-02T21:53:02.460Z,69.44
2018-10-02T21:55:30.378Z,70.14
2018-10-02T21:57:58.134Z,71.62
2018-10-02T22:00:26.795Z,70.17
2018-10-02T22:02:54.603Z,70.07
2018-10-02T22:05:22.355Z,69.73
2018-10-02T22:07:50.066Z,67.85
2018-10-02T22:10:17.784Z,67.74
2018-10-02T22:12:45.577Z,67.73
2018-10-02T22:15:13.350Z,67.67
2018-10-02T22:17:41.083Z,66.56
2018-10-02T22:20:08.856Z,66.24
2018-10-02T22:22:36.591Z,66.99
2018-10-02T22:25:04.431Z,67.41
2018-10-02T22:27:32.263Z,67.94
2018-10-02T22:30:00.028Z,68.26
2018-10-02T22:32:27.768Z,67.90
2018-10-02T22:34:55.499Z,68.71
2018-10-02T22:37:23.283Z,69.17
2018-10-02T22:39:51.062Z,67.61
2018-10-02T22:42:18.790Z,70.02
2018-10-02T22:44:46.575Z,71.33
2018-10-02T22:47:14.391Z,71.13
2018-10-02T22:49:42.146Z,70.95
2018-10-02T22:52:09.842Z,70.41
2018-10-02T22:54:37.636Z,70.98
2018-10-02T22:57:05.432Z,70.99
2018-10-02T22:59:33.189Z,70.61
2018-10-02T23:02:00.916Z,70.21
2018-10-02T23:04:28.692Z,70.30
2018-10-02T23:06:56.480Z,69.95
2018-10-02T23:09:24.239Z,68.56
2018-10-02T23:11:52.009Z,67.85
2018-10-02T23:14:19.820Z,68.14
2018-10-02T23:16:47.689Z,66.74
2018-10-02T23:19:15.495Z,65.54
2018-10-02T23:21:43.243Z,65.73
2018-10-02T23:24:10.998Z,65.82
2018-10-02T23:26:38.755Z,65.47
2018-10-02T23:29:06.612Z,65.74
2018-10-02T23:31:34.363Z,65.32
2018-10-02T23:34:02.199Z,65.72
2018-10-02T23:36:29.923Z,65.75
2018-10-02T23:38:57.583Z,66.80
2018-10-02T23:41:25.428Z,66.09
2018-10-02T23:43:53.271Z,65.12
2018-10-02T23:46:21.014Z,64.85
2018-10-02T23:48:48.748Z,66.69
2018-10-02T23:51:16.491Z,65.49
2018-10-02T23:53:44.239Z,65.71
2018-10-02T23:56:12.010Z,65.96
2018-10-02T23:58:39.739Z,66.06
